Time;durP1;ratioP1;P1;durP2;ratioP2;P2;SDS_P1;SDS_P2;PMS_P1;PMS_P2;Temp;Humidity;BMP_temperature;BMP_pressure;BME280_temperature;BME280_humidity;BME280_pressure;Samples;Min_cycle;Max_cycle;Signal;HPM_P1;HPM_P2
2022/03/08 00:01:01;;;;;;;7.85;3.63;;;2.40;92.40;;;;;;5035227;28;20397;-85
2022/03/08 00:03:27;;;;;;;7.85;4.05;;;2.40;92.40;;;;;;5020098;28;20385;-82
2022/03/08 00:05:54;;;;;;;9.75;4.30;;;2.40;92.00;;;;;;5035584;28;20033;-82
2022/03/08 00:08:20;;;;;;;8.55;3.60;;;2.30;92.30;;;;;;5032259;28;20045;-82
2022/03/08 00:10:46;;;;;;;9.07;4.35;;;2.30;92.40;;;;;;5017083;28;20057;-82
2022/03/08 00:13:11;;;;;;;8.68;3.72;;;2.30;92.40;;;;;;5033596;28;20044;-82
2022/03/08 00:15:37;;;;;;;7.85;3.95;;;2.30;92.70;;;;;;5029555;28;20045;-82
2022/03/08 00:18:03;;;;;;;7.32;3.53;;;2.20;92.90;;;;;;5034677;28;20048;-82
2022/03/08 00:20:30;;;;;;;10.63;4.55;;;2.20;93.30;;;;;;5033191;28;20037;-82
2022/03/08 00:22:56;;;;;;;8.48;3.78;;;2.20;93.30;;;;;;5019098;28;20044;-82
2022/03/08 00:25:22;;;;;;;7.43;3.45;;;2.20;93.40;;;;;;5037528;28;20036;-82
2022/03/08 00:27:48;;;;;;;7.47;3.78;;;2.10;93.40;;;;;;5034720;28;20041;-82
2022/03/08 00:30:21;;;;;;;9.35;4.07;;;2.10;92.70;;;;;;5025417;28;20033;-83
2022/03/08 00:32:48;;;;;;;7.88;3.75;;;2.10;94.00;;;;;;5047136;28;20033;-82
2022/03/08 00:35:14;;;;;;;7.47;3.90;;;2.10;94.20;;;;;;5032109;28;20116;-82
2022/03/08 00:37:41;;;;;;;9.52;3.85;;;2.00;94.00;;;;;;5016015;28;20033;-82
2022/03/08 00:40:09;;;;;;;8.40;4.30;;;2.00;94.00;;;;;;5038988;28;20480;-82
2022/03/08 00:42:34;;;;;;;9.05;4.50;;;2.00;94.40;;;;;;5032473;28;20087;-82
2022/03/08 00:45:00;;;;;;;11.32;4.45;;;2.00;94.50;;;;;;5036639;28;20068;-83
2022/03/08 00:47:26;;;;;;;8.73;4.05;;;2.00;94.40;;;;;;5035550;28;20065;-82
2022/03/08 00:49:52;;;;;;;8.05;3.75;;;2.00;95.20;;;;;;5018920;28;20515;-82
2022/03/08 00:52:19;;;;;;;9.55;4.68;;;1.90;94.70;;;;;;5021392;28;20124;-83
2022/03/08 00:54:44;;;;;;;8.85;3.58;;;1.90;95.00;;;;;;5009692;28;20056;-82
2022/03/08 00:57:10;;;;;;;7.85;4.07;;;1.90;95.40;;;;;;5030383;28;20033;-82
2022/03/08 00:59:36;;;;;;;6.95;3.45;;;1.90;95.20;;;;;;5010616;28;20382;-82
2022/03/08 01:02:02;;;;;;;7.90;4.45;;;1.80;94.20;;;;;;5013716;28;20136;-82
2022/03/08 01:04:27;;;;;;;7.32;3.65;;;1.80;95.00;;;;;;5020138;28;20419;-82
2022/03/08 01:06:55;;;;;;;7.93;3.90;;;1.80;94.60;;;;;;5026737;28;20038;-82
2022/03/08 01:09:21;;;;;;;9.77;4.68;;;1.80;94.10;;;;;;5029821;28;20466;-82
2022/03/08 01:11:46;;;;;;;7.25;3.58;;;1.70;95.00;;;;;;5006391;28;20048;-82
2022/03/08 01:14:12;;;;;;;6.70;3.33;;;1.70;95.60;;;;;;5028922;28;20101;-82
2022/03/08 01:16:38;;;;;;;8.90;3.72;;;1.70;96.20;;;;;;5002033;28;20057;-83
2022/03/08 01:19:05;;;;;;;10.93;4.80;;;1.70;95.90;;;;;;5003513;28;20041;-82
2022/03/08 01:21:33;;;;;;;9.88;4.50;;;1.70;96.30;;;;;;5007898;28;20041;-82
2022/03/08 01:24:00;;;;;;;10.63;4.85;;;1.70;96.60;;;;;;5026412;28;20037;-83
2022/03/08 01:26:25;;;;;;;9.70;4.20;;;1.60;95.80;;;;;;5007197;28;20034;-82
2022/03/08 01:28:51;;;;;;;9.32;4.45;;;1.60;95.50;;;;;;5025597;28;20037;-82
2022/03/08 01:31:16;;;;;;;8.77;4.63;;;1.60;96.40;;;;;;5021629;28;20046;-82
2022/03/08 01:33:42;;;;;;;8.95;4.03;;;1.60;96.40;;;;;;5025804;28;20048;-82
2022/03/08 01:36:08;;;;;;;10.02;4.78;;;1.60;96.70;;;;;;5027428;28;20045;-82
2022/03/08 01:38:34;;;;;;;9.07;4.20;;;1.50;96.90;;;;;;5013598;28;20041;-82
2022/03/08 01:40:59;;;;;;;8.73;4.30;;;1.50;96.70;;;;;;5024792;28;20041;-82
2022/03/08 01:43:25;;;;;;;12.63;4.10;;;1.50;96.80;;;;;;5015908;28;20420;-82
2022/03/08 01:45:51;;;;;;;8.15;4.20;;;1.50;97.00;;;;;;5034785;28;20037;-82
2022/03/08 01:48:16;;;;;;;10.73;5.18;;;1.40;98.00;;;;;;5019659;28;20409;-82
2022/03/08 01:50:42;;;;;;;11.95;4.55;;;1.40;98.30;;;;;;5031879;28;20075;-82
2022/03/08 01:53:08;;;;;;;11.45;5.10;;;1.40;99.30;;;;;;5016873;28;20045;-82
2022/03/08 01:55:34;;;;;;;9.32;4.55;;;1.40;99.90;;;;;;5032990;28;20522;-82
2022/03/08 01:58:00;;;;;;;9.60;4.18;;;1.30;99.90;;;;;;5027183;28;20124;-82
2022/03/08 02:00:29;;;;;;;10.55;4.90;;;1.30;99.90;;;;;;5035034;28;20045;-82
2022/03/08 02:02:56;;;;;;;10.80;5.13;;;1.20;99.90;;;;;;5008202;28;20050;-82
2022/03/08 02:05:23;;;;;;;8.30;4.05;;;1.20;99.90;;;;;;5027616;28;20103;-82
2022/03/08 02:07:49;;;;;;;10.38;4.25;;;1.20;99.90;;;;;;5028872;28;20033;-82
2022/03/08 02:10:15;;;;;;;8.50;4.28;;;1.10;99.90;;;;;;5013474;28;20037;-82
2022/03/08 02:12:40;;;;;;;9.52;4.70;;;1.10;99.90;;;;;;5015133;28;20042;-82
2022/03/08 02:15:16;;;;;;;9.23;4.47;;;1.10;99.90;;;;;;5033109;28;20042;-82
2022/03/08 02:17:43;;;;;;;9.30;4.43;;;1.00;99.90;;;;;;5035809;28;20041;-82
2022/03/08 02:20:10;;;;;;;9.15;4.45;;;1.00;99.90;;;;;;5012105;28;20083;-82
2022/03/08 02:22:36;;;;;;;8.52;4.15;;;0.90;99.90;;;;;;5026506;28;20436;-82
2022/03/08 02:25:03;;;;;;;9.80;4.50;;;0.90;99.90;;;;;;5024296;28;20152;-83
2022/03/08 02:27:29;;;;;;;9.10;4.55;;;0.90;99.90;;;;;;5029740;28;20150;-82
2022/03/08 02:29:56;;;;;;;10.32;5.10;;;0.90;99.90;;;;;;5012032;28;20368;-82
2022/03/08 02:32:23;;;;;;;10.00;5.18;;;0.90;99.90;;;;;;5026147;28;20497;-82
2022/03/08 02:34:48;;;;;;;11.60;5.10;;;0.90;99.90;;;;;;5023261;28;20068;-82
2022/03/08 02:37:14;;;;;;;9.25;4.60;;;0.90;99.90;;;;;;5029713;28;20239;-82
2022/03/08 02:39:40;;;;;;;10.40;5.20;;;0.80;99.90;;;;;;5032282;28;20044;-82
2022/03/08 02:42:07;;;;;;;15.68;5.18;;;0.80;99.90;;;;;;5029205;28;20037;-82
2022/03/08 02:44:33;;;;;;;9.82;4.63;;;0.90;99.90;;;;;;5026140;28;20037;-82
2022/03/08 02:47:03;;;;;;;9.30;4.43;;;0.80;99.90;;;;;;5030892;28;20568;-82
2022/03/08 02:49:30;;;;;;;9.90;4.53;;;0.80;99.90;;;;;;5026050;28;20021;-82
2022/03/08 02:51:56;;;;;;;8.88;4.22;;;0.80;99.90;;;;;;5019697;28;20045;-82
2022/03/08 02:54:23;;;;;;;9.35;4.60;;;0.80;99.90;;;;;;5026116;28;20080;-82
2022/03/08 02:56:48;;;;;;;13.82;5.38;;;0.80;99.90;;;;;;5016606;28;20076;-82
2022/03/08 02:59:23;;;;;;;10.13;4.95;;;0.80;99.90;;;;;;5019322;28;20466;-83
2022/03/08 03:01:49;;;;;;;11.57;4.88;;;0.70;99.90;;;;;;5028116;28;20103;-82
2022/03/08 03:04:15;;;;;;;14.57;5.25;;;0.70;99.90;;;;;;5023084;28;20061;-82
2022/03/08 03:06:43;;;;;;;10.05;4.85;;;0.70;99.90;;;;;;5009023;28;20041;-82
2022/03/08 03:09:08;;;;;;;14.07;5.40;;;0.70;99.90;;;;;;5016484;28;20116;-82
2022/03/08 03:11:34;;;;;;;10.30;5.53;;;0.70;99.90;;;;;;5031773;28;20080;-82
2022/03/08 03:14:00;;;;;;;10.43;5.20;;;0.60;99.90;;;;;;5011085;28;20037;-82
2022/03/08 03:16:27;;;;;;;11.20;5.50;;;0.60;99.90;;;;;;5013355;28;20041;-82
2022/03/08 03:18:52;;;;;;;10.93;5.25;;;0.60;99.90;;;;;;5031640;28;20378;-82
2022/03/08 03:21:18;;;;;;;10.23;4.90;;;0.70;99.90;;;;;;5027936;28;20049;-82
2022/03/08 03:23:43;;;;;;;10.60;5.30;;;0.60;99.90;;;;;;5031514;28;20052;-82
2022/03/08 03:26:09;;;;;;;15.40;6.22;;;0.70;99.90;;;;;;5016667;28;20029;-82
2022/03/08 03:28:34;;;;;;;8.65;4.72;;;0.70;99.90;;;;;;5022589;28;20042;-82
2022/03/08 03:31:00;;;;;;;11.30;5.95;;;0.70;99.90;;;;;;5020413;28;20045;-82
2022/03/08 03:33:26;;;;;;;13.50;6.63;;;0.70;99.90;;;;;;5012741;28;20114;-82
2022/03/08 03:35:51;;;;;;;11.93;5.68;;;0.70;99.90;;;;;;5031357;28;20041;-81
2022/03/08 03:38:17;;;;;;;10.07;5.00;;;0.60;99.90;;;;;;5031820;28;20139;-82
2022/03/08 03:40:43;;;;;;;11.80;6.07;;;0.60;99.90;;;;;;5028485;28;20042;-82
2022/03/08 03:43:08;;;;;;;10.38;5.32;;;0.60;99.90;;;;;;5030228;28;20496;-82
2022/03/08 03:45:34;;;;;;;12.85;5.82;;;0.60;99.90;;;;;;5012517;28;20140;-82
2022/03/08 03:47:59;;;;;;;13.70;6.63;;;0.60;99.90;;;;;;5018934;28;20049;-83
2022/03/08 03:50:25;;;;;;;9.85;5.32;;;0.60;99.90;;;;;;5029617;28;20433;-82
2022/03/08 03:52:52;;;;;;;12.15;4.93;;;0.60;99.90;;;;;;5011532;28;20044;-82
2022/03/08 03:55:17;;;;;;;12.60;5.47;;;0.60;99.90;;;;;;5013786;28;20115;-82
2022/03/08 03:57:43;;;;;;;13.77;5.53;;;0.60;99.90;;;;;;5012171;28;20045;-82
2022/03/08 04:00:11;;;;;;;13.05;5.32;;;0.60;99.90;;;;;;5025403;28;20091;-82
2022/03/08 04:02:37;;;;;;;14.07;6.45;;;0.50;99.90;;;;;;5012219;28;20054;-82
2022/03/08 04:05:03;;;;;;;11.13;5.43;;;0.50;99.90;;;;;;5009184;28;20514;-82
2022/03/08 04:07:29;;;;;;;12.05;5.90;;;0.50;99.90;;;;;;5027396;28;20045;-82
2022/03/08 04:09:55;;;;;;;12.98;6.38;;;0.40;99.90;;;;;;5011838;28;20044;-82
2022/03/08 04:12:20;;;;;;;10.63;5.20;;;0.40;99.90;;;;;;5029385;28;20046;-82
2022/03/08 04:14:46;;;;;;;14.15;6.93;;;0.40;99.90;;;;;;5033870;28;20375;-82
2022/03/08 04:17:11;;;;;;;11.93;5.70;;;0.40;99.90;;;;;;5015769;28;20114;-82
2022/03/08 04:19:37;;;;;;;12.27;5.70;;;0.40;99.90;;;;;;5002737;28;20100;-82
2022/03/08 04:22:03;;;;;;;14.85;5.35;;;0.40;99.90;;;;;;5019672;28;20050;-82
2022/03/08 04:24:28;;;;;;;13.68;5.70;;;0.40;99.90;;;;;;5012540;28;20129;-82
2022/03/08 04:26:54;;;;;;;12.25;6.28;;;0.40;99.90;;;;;;5029757;28;20049;-82
2022/03/08 04:29:20;;;;;;;12.93;6.85;;;0.40;99.90;;;;;;5024443;28;20108;-82
2022/03/08 04:31:45;;;;;;;14.07;6.22;;;0.30;99.90;;;;;;5010703;28;20395;-82
2022/03/08 04:34:11;;;;;;;11.73;5.07;;;0.30;99.90;;;;;;5007680;28;20037;-82
2022/03/08 04:36:36;;;;;;;11.13;5.90;;;0.30;99.90;;;;;;5006352;28;20124;-82
2022/03/08 04:39:02;;;;;;;13.68;6.30;;;0.30;99.90;;;;;;5005062;28;20406;-81
2022/03/08 04:41:28;;;;;;;10.63;5.88;;;0.30;99.90;;;;;;5013114;28;20037;-81
2022/03/08 04:43:54;;;;;;;12.13;6.47;;;0.20;99.90;;;;;;5027670;28;20037;-82
2022/03/08 04:46:19;;;;;;;11.65;5.50;;;0.20;99.90;;;;;;5014185;28;20532;-82
2022/03/08 04:48:45;;;;;;;11.35;6.28;;;0.20;99.90;;;;;;5029291;28;20041;-82
2022/03/08 04:51:10;;;;;;;12.07;6.45;;;0.20;99.90;;;;;;5024615;28;20406;-82
2022/03/08 04:53:36;;;;;;;14.00;6.38;;;0.20;99.90;;;;;;5003838;28;20049;-82
2022/03/08 04:56:02;;;;;;;12.60;6.15;;;0.20;99.90;;;;;;5024865;28;20049;-82
2022/03/08 04:58:27;;;;;;;14.98;6.97;;;0.20;99.90;;;;;;5053067;28;20042;-82
2022/03/08 05:00:53;;;;;;;12.15;5.90;;;0.20;99.90;;;;;;5029074;28;20406;-81
2022/03/08 05:03:19;;;;;;;12.32;6.28;;;0.20;99.90;;;;;;5026199;28;20056;-82
2022/03/08 05:05:45;;;;;;;13.52;7.07;;;0.20;99.90;;;;;;5033549;28;20041;-82
2022/03/08 05:08:10;;;;;;;11.05;6.35;;;0.20;99.90;;;;;;5031253;28;20044;-82
2022/03/08 05:10:36;;;;;;;13.55;6.45;;;0.10;99.90;;;;;;5030720;28;20026;-82
2022/03/08 05:13:03;;;;;;;13.00;6.30;;;0.10;99.90;;;;;;5026459;28;20064;-82
2022/03/08 05:15:30;;;;;;;12.73;6.65;;;0.10;99.90;;;;;;5023560;28;20033;-82
2022/03/08 05:17:55;;;;;;;14.38;7.20;;;0.10;99.90;;;;;;5021731;28;20042;-82
2022/03/08 05:20:21;;;;;;;12.88;6.43;;;0.10;99.90;;;;;;5023786;28;20406;-82
2022/03/08 05:22:47;;;;;;;13.18;6.50;;;0.10;99.90;;;;;;5033238;28;20025;-82
2022/03/08 05:25:13;;;;;;;13.88;7.05;;;0.10;99.90;;;;;;5007581;28;20072;-82
2022/03/08 05:27:40;;;;;;;10.98;6.43;;;0.10;99.90;;;;;;5026416;28;20453;-81
2022/03/08 05:30:06;;;;;;;13.32;6.53;;;0.00;99.90;;;;;;5019815;28;20114;-82
2022/03/08 05:32:32;;;;;;;13.50;6.50;;;0.00;99.90;;;;;;5030165;28;20072;-82
2022/03/08 05:34:57;;;;;;;18.00;7.97;;;0.00;99.90;;;;;;5018100;28;20081;-82
2022/03/08 05:37:23;;;;;;;14.73;7.28;;;0.00;99.90;;;;;;5029002;28;20045;-82
2022/03/08 05:39:49;;;;;;;12.30;6.65;;;0.00;99.90;;;;;;5005156;28;20045;-82
2022/03/08 05:42:14;;;;;;;12.13;6.00;;;0.00;99.90;;;;;;5027669;28;20128;-82
2022/03/08 05:44:40;;;;;;;13.20;6.35;;;0.00;99.90;;;;;;5011899;28;20049;-81
2022/03/08 05:47:06;;;;;;;14.23;7.15;;;0.00;99.90;;;;;;5021815;28;20178;-82
2022/03/08 05:49:32;;;;;;;11.27;5.82;;;0.00;99.90;;;;;;5028249;28;20029;-81
2022/03/08 05:51:58;;;;;;;12.82;6.68;;;-0.10;99.90;;;;;;5003809;28;20038;-82
2022/03/08 05:54:23;;;;;;;13.48;6.57;;;-0.10;99.90;;;;;;5004599;28;20089;-81
2022/03/08 05:56:49;;;;;;;14.13;7.22;;;-0.10;99.90;;;;;;5006748;28;20077;-82
2022/03/08 05:59:15;;;;;;;12.90;7.00;;;0.00;99.90;;;;;;5011309;28;20045;-82
2022/03/08 06:01:41;;;;;;;13.93;7.20;;;-0.10;99.90;;;;;;5011494;28;20065;-82
2022/03/08 06:04:06;;;;;;;15.63;7.10;;;-0.10;99.90;;;;;;5024336;28;20049;-82
2022/03/08 06:06:32;;;;;;;12.70;5.70;;;-0.10;99.90;;;;;;5010986;28;20037;-82
2022/03/08 06:08:58;;;;;;;12.70;6.68;;;-0.10;99.90;;;;;;5024566;28;20038;-82
2022/03/08 06:11:23;;;;;;;13.15;6.43;;;-0.10;99.90;;;;;;5026703;28;20091;-82
2022/03/08 06:13:49;;;;;;;10.57;5.63;;;-0.10;99.90;;;;;;5028127;28;20489;-82
2022/03/08 06:16:15;;;;;;;14.80;7.03;;;-0.10;99.90;;;;;;5027963;28;20045;-82
2022/03/08 06:18:40;;;;;;;14.52;7.20;;;0.00;99.90;;;;;;5034940;28;20049;-82
2022/03/08 06:21:06;;;;;;;14.85;7.13;;;0.00;99.90;;;;;;5024640;28;20060;-82
2022/03/08 06:23:32;;;;;;;13.38;7.10;;;0.00;99.90;;;;;;5021037;28;20033;-82
2022/03/08 06:25:57;;;;;;;13.23;6.60;;;0.00;99.90;;;;;;5028659;28;20434;-82
2022/03/08 06:28:23;;;;;;;13.40;6.65;;;0.00;99.90;;;;;;5026197;28;20072;-82
2022/03/08 06:30:49;;;;;;;13.70;7.43;;;0.00;99.90;;;;;;5033366;28;20033;-82
2022/03/08 06:33:14;;;;;;;14.50;6.70;;;0.00;99.90;;;;;;5008757;28;20061;-82
2022/03/08 06:35:40;;;;;;;15.38;7.38;;;0.00;99.90;;;;;;5011259;28;20044;-82
2022/03/08 06:38:05;;;;;;;18.20;8.25;;;0.10;99.90;;;;;;5033035;28;20132;-82
2022/03/08 06:40:32;;;;;;;12.85;6.55;;;0.10;99.90;;;;;;5032778;28;20176;-82
2022/03/08 06:42:57;;;;;;;15.00;7.25;;;0.10;99.90;;;;;;5017075;28;20501;-82
2022/03/08 06:45:23;;;;;;;14.07;6.88;;;0.10;99.90;;;;;;5014210;28;20124;-82
2022/03/08 06:47:49;;;;;;;16.73;7.18;;;0.10;99.90;;;;;;5033331;28;20100;-82
2022/03/08 06:50:15;;;;;;;13.00;7.07;;;0.20;99.90;;;;;;5012721;28;21433;-82
2022/03/08 06:52:41;;;;;;;13.40;7.30;;;0.20;99.90;;;;;;5032530;28;20170;-82
2022/03/08 06:55:07;;;;;;;12.65;6.93;;;0.20;99.90;;;;;;5029975;28;20163;-82
2022/03/08 06:57:32;;;;;;;12.75;7.15;;;0.30;99.90;;;;;;5020840;28;20041;-83
2022/03/08 06:59:58;;;;;;;12.77;6.68;;;0.30;99.90;;;;;;5035373;28;20049;-81
2022/03/08 07:02:25;;;;;;;13.40;6.65;;;0.30;99.90;;;;;;5011394;28;20557;-82
2022/03/08 07:04:51;;;;;;;12.30;6.65;;;0.30;99.90;;;;;;5016104;28;20046;-82
2022/03/08 07:07:17;;;;;;;17.15;7.40;;;0.40;99.90;;;;;;5031782;28;20473;-82
2022/03/08 07:09:42;;;;;;;12.63;6.88;;;0.40;99.90;;;;;;5012206;28;20037;-82
2022/03/08 07:12:08;;;;;;;14.32;7.20;;;0.40;99.90;;;;;;5019193;28;20056;-82
2022/03/08 07:14:34;;;;;;;14.68;6.82;;;0.50;99.90;;;;;;5033295;28;20037;-84
2022/03/08 07:17:00;;;;;;;12.40;6.80;;;0.50;99.90;;;;;;5015184;28;20504;-84
2022/03/08 07:19:25;;;;;;;12.57;6.47;;;0.60;99.90;;;;;;5029713;28;20042;-84
2022/03/08 07:21:51;;;;;;;12.73;6.47;;;0.60;99.90;;;;;;5024511;28;20038;-84
2022/03/08 07:24:17;;;;;;;14.40;6.80;;;0.70;99.90;;;;;;5030802;28;20498;-84
2022/03/08 07:26:43;;;;;;;14.15;6.88;;;0.70;99.90;;;;;;5031212;28;20541;-84
2022/03/08 07:29:08;;;;;;;11.63;6.03;;;0.80;99.90;;;;;;5032649;28;20075;-84
2022/03/08 07:31:34;;;;;;;15.75;7.75;;;0.80;99.90;;;;;;5030778;28;20041;-84
2022/03/08 07:34:00;;;;;;;10.93;5.68;;;0.90;99.90;;;;;;5016957;28;20052;-84
2022/03/08 07:36:26;;;;;;;15.63;6.97;;;0.90;99.90;;;;;;5032860;28;20041;-84
2022/03/08 07:38:51;;;;;;;13.50;6.95;;;1.00;99.90;;;;;;5040878;28;20045;-84
2022/03/08 07:41:17;;;;;;;11.88;6.53;;;1.10;99.90;;;;;;5033210;28;20037;-84
2022/03/08 07:43:43;;;;;;;12.85;6.57;;;1.10;99.90;;;;;;5035137;28;20042;-84
2022/03/08 07:46:09;;;;;;;12.73;6.72;;;1.20;99.90;;;;;;5032227;28;20077;-84
2022/03/08 07:48:35;;;;;;;12.60;6.43;;;1.20;99.90;;;;;;5027149;28;20038;-84
2022/03/08 07:51:02;;;;;;;12.07;6.40;;;1.30;99.90;;;;;;5027174;28;20044;-84
2022/03/08 07:53:27;;;;;;;12.07;7.10;;;1.40;99.90;;;;;;5030645;28;20116;-84
2022/03/08 07:55:53;;;;;;;11.63;5.75;;;1.40;99.90;;;;;;5010296;28;20128;-84
2022/03/08 07:58:19;;;;;;;12.93;6.72;;;1.50;99.90;;;;;;5030425;28;20060;-85
2022/03/08 08:00:45;;;;;;;12.85;6.30;;;1.60;99.90;;;;;;5030554;28;20084;-84
2022/03/08 08:03:11;;;;;;;12.35;6.93;;;1.60;99.90;;;;;;5027849;28;20438;-84
2022/03/08 08:05:38;;;;;;;10.13;6.15;;;1.70;99.90;;;;;;5013191;28;20079;-84
2022/03/08 08:08:05;;;;;;;12.70;6.72;;;1.80;99.90;;;;;;5030074;28;20050;-84
2022/03/08 08:10:31;;;;;;;12.45;6.43;;;1.80;99.90;;;;;;5030486;28;20049;-84
2022/03/08 08:12:57;;;;;;;11.18;6.35;;;1.90;99.90;;;;;;5029497;28;20048;-84
2022/03/08 08:15:23;;;;;;;12.13;6.53;;;2.00;99.90;;;;;;5029366;28;20109;-84
2022/03/08 08:17:49;;;;;;;12.23;6.70;;;2.10;99.90;;;;;;5028922;28;20037;-84
2022/03/08 08:20:15;;;;;;;11.07;6.25;;;2.10;99.80;;;;;;5026431;28;20041;-84
2022/03/08 08:22:41;;;;;;;11.32;6.25;;;2.20;99.50;;;;;;5009858;28;20033;-84
2022/03/08 08:25:08;;;;;;;11.18;6.45;;;2.30;99.00;;;;;;5026835;28;20026;-84
2022/03/08 08:27:34;;;;;;;11.43;6.03;;;2.40;98.80;;;;;;5006170;28;20445;-84
2022/03/08 08:30:00;;;;;;;10.13;5.65;;;2.50;98.00;;;;;;5028683;28;20059;-85
2022/03/08 08:32:26;;;;;;;13.18;6.40;;;2.50;97.50;;;;;;5027609;28;20536;-84
2022/03/08 08:34:51;;;;;;;12.07;6.22;;;2.70;97.00;;;;;;5029649;28;20041;-84
2022/03/08 08:37:17;;;;;;;10.75;6.03;;;2.80;96.50;;;;;;5013472;28;20098;-84
2022/03/08 08:39:43;;;;;;;12.57;6.60;;;2.90;96.70;;;;;;5030411;28;20083;-84
2022/03/08 08:42:09;;;;;;;11.40;5.75;;;3.00;95.80;;;;;;5028780;28;20045;-84
2022/03/08 08:44:34;;;;;;;10.82;5.57;;;3.10;95.30;;;;;;5009332;28;20033;-84
2022/03/08 08:47:01;;;;;;;10.77;5.38;;;3.20;94.90;;;;;;5027907;28;20041;-84
2022/03/08 08:49:27;;;;;;;9.57;5.60;;;3.30;94.80;;;;;;5027824;28;20052;-84
2022/03/08 08:51:53;;;;;;;11.80;5.35;;;3.50;94.10;;;;;;5014638;28;20091;-85
2022/03/08 08:54:19;;;;;;;10.25;5.20;;;3.60;93.40;;;;;;5017647;28;20077;-84
2022/03/08 08:56:44;;;;;;;9.88;5.45;;;3.80;92.50;;;;;;5010916;28;20379;-84
2022/03/08 08:59:10;;;;;;;10.13;4.75;;;3.90;91.10;;;;;;5032671;28;20041;-84
2022/03/08 09:01:36;;;;;;;9.68;4.82;;;4.10;87.70;;;;;;5027616;28;20121;-84
2022/03/08 09:04:02;;;;;;;9.55;5.00;;;4.30;86.10;;;;;;5029246;28;20112;-84
2022/03/08 09:06:28;;;;;;;8.73;4.60;;;4.40;85.50;;;;;;5029734;28;20485;-84
2022/03/08 09:08:56;;;;;;;9.02;4.70;;;4.60;81.70;;;;;;5029790;28;20034;-84
2022/03/08 09:11:22;;;;;;;7.45;4.32;;;4.70;80.30;;;;;;5012468;28;20041;-84
2022/03/08 09:13:47;;;;;;;7.57;4.50;;;4.80;79.90;;;;;;5031212;28;20045;-84
2022/03/08 09:16:15;;;;;;;8.73;3.88;;;4.90;78.60;;;;;;5023164;28;20048;-84
2022/03/08 09:18:41;;;;;;;6.72;4.20;;;5.10;77.60;;;;;;5030023;28;20053;-85
2022/03/08 09:21:07;;;;;;;6.53;3.50;;;5.20;75.40;;;;;;5027321;28;20094;-84
2022/03/08 09:23:33;;;;;;;6.80;3.78;;;5.40;72.80;;;;;;5026266;28;20049;-84
2022/03/08 09:25:59;;;;;;;8.55;4.30;;;5.50;72.30;;;;;;5010043;28;20591;-84
2022/03/08 09:28:24;;;;;;;7.97;3.65;;;5.70;68.60;;;;;;5030285;28;20026;-84
2022/03/08 09:30:50;;;;;;;8.38;3.83;;;5.80;67.50;;;;;;5013219;28;20029;-84
2022/03/08 09:33:15;;;;;;;8.52;3.72;;;5.90;65.80;;;;;;5020146;28;20524;-84
2022/03/08 09:35:41;;;;;;;9.48;3.80;;;5.90;66.10;;;;;;5011283;28;20042;-84
2022/03/08 09:38:06;;;;;;;6.70;3.42;;;6.00;65.70;;;;;;5036913;28;20048;-84
2022/03/08 09:40:35;;;;;;;7.35;3.95;;;6.10;63.90;;;;;;5038812;28;20037;-84
2022/03/08 09:43:00;;;;;;;5.80;3.05;;;6.20;62.30;;;;;;5030554;28;20390;-84
2022/03/08 09:45:26;;;;;;;7.97;3.40;;;6.30;60.40;;;;;;5030271;28;20064;-84
2022/03/08 09:47:52;;;;;;;6.13;3.25;;;6.40;60.40;;;;;;5028881;28;20339;-84
2022/03/08 09:50:17;;;;;;;6.00;2.78;;;6.40;59.10;;;;;;5033853;28;20090;-84
2022/03/08 09:52:43;;;;;;;4.68;3.13;;;6.50;59.00;;;;;;5009008;28;20042;-84
2022/03/08 09:55:13;;;;;;;6.28;3.70;;;6.60;60.20;;;;;;5019535;28;20490;-84
2022/03/08 09:57:40;;;;;;;9.43;4.18;;;6.70;59.30;;;;;;5011573;28;20397;-84
2022/03/08 10:00:08;;;;;;;6.45;3.75;;;6.70;59.60;;;;;;5010266;28;20481;-85
2022/03/08 10:02:49;;;;;;;8.60;3.80;;;6.80;57.80;;;;;;5028705;28;20061;-84
2022/03/08 10:05:16;;;;;;;6.80;3.85;;;6.90;57.70;;;;;;5012793;28;20061;-84
2022/03/08 10:08:13;;;;;;;5.10;3.20;;;6.90;58.00;;;;;;5033077;28;20499;-84
2022/03/08 10:11:11;;;;;;;5.95;3.28;;;7.00;56.90;;;;;;5027398;28;20033;-84
2022/03/08 10:13:42;;;;;;;6.40;3.15;;;7.10;56.90;;;;;;5031756;28;20119;-84
2022/03/08 10:16:14;;;;;;;9.23;3.92;;;7.10;56.90;;;;;;5017727;28;20049;-84
2022/03/08 10:18:48;;;;;;;5.70;3.58;;;7.20;56.60;;;;;;5033712;28;20055;-84
2022/03/08 10:21:29;;;;;;;7.47;4.00;;;7.20;56.60;;;;;;5032152;28;20084;-84
2022/03/08 10:23:56;;;;;;;6.82;3.90;;;7.30;55.80;;;;;;5033538;28;20435;-84
2022/03/08 10:26:23;;;;;;;7.53;4.18;;;7.30;56.70;;;;;;5032754;28;20490;-84
2022/03/08 10:28:51;;;;;;;5.65;3.08;;;7.40;56.40;;;;;;5030092;28;20556;-85
2022/03/08 10:31:17;;;;;;;6.07;3.80;;;7.50;55.50;;;;;;5030588;28;20386;-84
2022/03/08 10:33:45;;;;;;;6.93;3.80;;;7.50;54.90;;;;;;5031123;28;20053;-84
2022/03/08 10:36:22;;;;;;;5.65;3.47;;;7.60;54.50;;;;;;5033921;28;20065;-84
2022/03/08 10:39:13;;;;;;;6.55;3.75;;;7.70;55.00;;;;;;5030349;28;20033;-84
2022/03/08 10:41:49;;;;;;;7.32;3.63;;;7.80;54.20;;;;;;5025624;28;20030;-84
2022/03/08 10:44:17;;;;;;;7.53;3.50;;;7.90;53.00;;;;;;5029318;28;20038;-84
2022/03/08 10:46:57;;;;;;;7.22;3.80;;;7.90;53.90;;;;;;5029937;28;20068;-84
2022/03/08 10:49:23;;;;;;;9.43;3.63;;;8.00;53.20;;;;;;5033145;28;20044;-84
2022/03/08 10:52:02;;;;;;;5.50;2.95;;;8.20;53.70;;;;;;5035252;28;20045;-84
2022/03/08 10:54:29;;;;;;;4.97;2.70;;;8.20;52.10;;;;;;5032870;28;20481;-84
2022/03/08 10:56:55;;;;;;;8.20;3.28;;;8.30;51.90;;;;;;5033141;28;20029;-84
2022/03/08 10:59:21;;;;;;;9.80;3.45;;;8.30;51.50;;;;;;5031506;28;20048;-84
2022/03/08 11:01:46;;;;;;;6.43;3.42;;;8.30;51.90;;;;;;5032226;28;20076;-85
2022/03/08 11:04:23;;;;;;;9.15;2.85;;;8.40;51.40;;;;;;5016361;28;20042;-84
2022/03/08 11:06:51;;;;;;;5.03;2.97;;;8.50;51.50;;;;;;5038000;28;20052;-84
2022/03/08 11:09:21;;;;;;;6.93;3.30;;;8.60;51.60;;;;;;5038843;28;20489;-84
2022/03/08 11:11:47;;;;;;;7.03;3.30;;;8.70;51.30;;;;;;5030279;28;20029;-85
2022/03/08 11:14:14;;;;;;;6.68;3.33;;;8.80;51.50;;;;;;5032188;28;20040;-84
2022/03/08 11:16:40;;;;;;;5.22;3.00;;;8.90;50.90;;;;;;5026702;28;20056;-84
2022/03/08 11:19:06;;;;;;;5.82;3.08;;;8.90;50.10;;;;;;5034218;28;20042;-84
2022/03/08 11:21:34;;;;;;;5.55;3.35;;;9.00;50.30;;;;;;5016572;28;20402;-84
2022/03/08 11:24:02;;;;;;;6.93;3.47;;;9.00;50.70;;;;;;5034949;28;20142;-84
2022/03/08 11:26:29;;;;;;;5.68;3.00;;;9.10;49.30;;;;;;5029582;28;20103;-84
2022/03/08 11:28:56;;;;;;;5.38;2.92;;;9.20;49.70;;;;;;5033536;28;20545;-84
2022/03/08 11:31:28;;;;;;;5.97;3.30;;;9.20;49.50;;;;;;5028092;28;20125;-84
2022/03/08 11:34:21;;;;;;;7.35;3.50;;;9.30;50.90;;;;;;5032104;28;20053;-84
2022/03/08 11:36:59;;;;;;;6.05;3.13;;;9.40;49.50;;;;;;5029249;28;20033;-84
2022/03/08 11:39:27;;;;;;;6.03;3.30;;;9.50;49.50;;;;;;5033706;28;20037;-85
2022/03/08 11:42:26;;;;;;;6.80;2.70;;;9.60;49.60;;;;;;5027465;28;20033;-84
2022/03/08 11:45:01;;;;;;;6.18;2.75;;;9.60;48.00;;;;;;5009216;28;20092;-84
2022/03/08 11:47:59;;;;;;;5.30;2.67;;;9.60;47.60;;;;;;5016063;28;20045;-84
2022/03/08 11:50:49;;;;;;;6.30;3.05;;;9.70;47.80;;;;;;5030190;28;20040;-84
2022/03/08 11:53:16;;;;;;;4.35;2.22;;;9.80;47.50;;;;;;5030547;28;20064;-84
2022/03/08 11:55:48;;;;;;;4.50;2.95;;;9.90;46.80;;;;;;5033804;28;20045;-84
2022/03/08 11:58:19;;;;;;;6.90;3.30;;;9.90;46.70;;;;;;5030632;28;20037;-84
2022/03/08 12:00:47;;;;;;;5.00;2.53;;;10.00;47.00;;;;;;5034185;28;20045;-84
2022/03/08 12:03:21;;;;;;;5.03;3.10;;;10.00;46.80;;;;;;5031114;28;20069;-84
2022/03/08 12:05:47;;;;;;;5.15;2.78;;;10.10;46.00;;;;;;5032926;28;20037;-84
2022/03/08 12:08:28;;;;;;;4.60;2.65;;;10.20;46.40;;;;;;5015964;28;20037;-85
2022/03/08 12:10:58;;;;;;;8.45;3.20;;;10.30;46.10;;;;;;5034362;28;20033;-85
2022/03/08 12:13:25;;;;;;;5.18;2.60;;;10.40;46.00;;;;;;5032665;28;20079;-84
2022/03/08 12:16:08;;;;;;;7.93;3.53;;;10.50;46.70;;;;;;5010805;28;20042;-84
2022/03/08 12:18:48;;;;;;;6.20;3.30;;;10.70;45.70;;;;;;5030594;28;20099;-84
2022/03/08 12:21:20;;;;;;;4.82;2.80;;;11.10;44.80;;;;;;5012573;28;20510;-84
2022/03/08 12:23:55;;;;;;;5.68;2.80;;;11.50;44.70;;;;;;5031206;28;20492;-84
2022/03/08 12:26:52;;;;;;;5.43;2.70;;;12.00;43.40;;;;;;5030211;28;20053;-85
2022/03/08 12:29:22;;;;;;;8.35;3.15;;;12.40;41.50;;;;;;5057256;28;20564;-84
2022/03/08 12:32:01;;;;;;;4.78;2.53;;;12.50;40.30;;;;;;5033466;28;20076;-84
2022/03/08 12:34:35;;;;;;;7.22;2.88;;;12.50;39.80;;;;;;5030284;28;20046;-84
2022/03/08 12:37:14;;;;;;;5.47;2.97;;;12.70;40.50;;;;;;5032187;28;20129;-84
2022/03/08 12:39:43;;;;;;;5.93;2.83;;;13.30;40.50;;;;;;5014594;28;20855;-85
2022/03/08 12:42:31;;;;;;;5.78;3.30;;;13.60;39.40;;;;;;5030434;28;20079;-84
2022/03/08 12:45:15;;;;;;;6.53;2.40;;;14.00;39.50;;;;;;5025875;28;20033;-85
2022/03/08 12:47:48;;;;;;;5.03;3.15;;;14.00;36.60;;;;;;5029327;28;20049;-85
2022/03/08 12:50:17;;;;;;;5.78;2.72;;;14.10;37.40;;;;;;5028847;28;20131;-83
2022/03/08 12:52:45;;;;;;;4.68;2.85;;;14.40;38.10;;;;;;5027435;28;20061;-83